Time;durP1;ratioP1;P1;durP2;ratioP2;P2;SDS_P1;SDS_P2;PMS_P1;PMS_P2;Temp;Humidity;BMP_temperature;BMP_pressure;BME280_temperature;BME280_humidity;BME280_pressure;Samples;Min_cycle;Max_cycle;Signal;HPM_P1;HPM_P2
2023/10/01 19:47:55;;;;;;;21.35;19.38;;;;;;;16.87;65.50;95504.19;5136236;27;20560;-73
2023/10/01 19:50:49;;;;;;;21.23;19.33;;;;;;;17.33;62.81;95501.41;5102239;27;20219;-74
2023/10/01 19:53:19;;;;;;;22.55;20.42;;;;;;;17.36;62.59;95503.72;5081723;28;20223;-74
2023/10/01 19:56:01;;;;;;;20.55;18.85;;;;;;;17.62;61.28;95506.75;5089839;28;20218;-75
2023/10/01 19:58:32;;;;;;;20.92;18.83;;;;;;;17.75;60.73;95507.94;5081083;28;20219;-75
2023/10/01 20:01:14;;;;;;;21.10;19.30;;;;;;;17.84;60.45;95517.50;5083448;28;20301;-74
2023/10/01 20:03:54;;;;;;;22.05;19.98;;;;;;;17.56;60.94;95507.50;5080274;28;20210;-75
2023/10/01 20:06:22;;;;;;;21.35;19.45;;;;;;;17.58;61.16;95518.75;5094433;28;20203;-74
2023/10/01 20:08:55;;;;;;;21.05;19.25;;;;;;;17.68;60.74;95517.69;5081044;28;20219;-74
2023/10/01 20:11:22;;;;;;;22.73;20.83;;;;;;;17.63;60.55;95518.22;5091163;28;20272;-73
2023/10/01 20:13:49;;;;;;;23.20;21.05;;;;;;;17.68;60.74;95518.50;5092026;28;20267;-73
2023/10/01 20:16:20;;;;;;;22.48;20.48;;;;;;;17.66;60.63;95517.03;5083081;28;20506;-73
2023/10/01 20:18:46;;;;;;;23.15;20.85;;;;;;;17.65;60.42;95518.88;5095191;28;20183;-74
2023/10/01 20:21:22;;;;;;;23.85;21.50;;;;;;;17.60;60.73;95513.25;5090738;28;20213;-75
2023/10/01 20:23:50;;;;;;;23.65;21.55;;;;;;;17.53;60.97;95518.47;5077280;28;20219;-75
2023/10/01 20:26:19;;;;;;;22.98;21.08;;;;;;;17.57;61.01;95516.28;5073668;28;20204;-74
2023/10/01 20:28:50;;;;;;;22.70;20.60;;;;;;;17.62;60.89;95513.91;5090116;28;20224;-74
2023/10/01 20:31:16;;;;;;;23.30;21.00;;;;;;;17.70;60.56;95518.31;5077665;28;20227;-74
2023/10/01 20:33:43;;;;;;;22.95;21.05;;;;;;;17.71;60.56;95525.28;5092896;28;20270;-74
2023/10/01 20:36:09;;;;;;;24.90;22.60;;;;;;;17.56;61.00;95519.94;5095854;28;20188;-75
2023/10/01 20:38:35;;;;;;;24.73;22.52;;;;;;;17.54;61.23;95527.31;5078175;28;20231;-74
2023/10/01 20:41:18;;;;;;;24.35;22.08;;;;;;;17.54;61.42;95528.13;5077627;28;20208;-72
2023/10/01 20:43:45;;;;;;;24.25;22.15;;;;;;;17.43;61.75;95525.91;5081336;28;20208;-73
2023/10/01 20:46:17;;;;;;;24.40;22.00;;;;;;;17.50;61.35;95524.16;5093609;28;20216;-73
2023/10/01 20:48:44;;;;;;;23.83;21.60;;;;;;;17.51;61.47;95533.81;5078893;28;20188;-73
2023/10/01 20:51:32;;;;;;;23.33;21.13;;;;;;;17.44;61.67;95526.72;5088771;28;20183;-74
2023/10/01 20:54:04;;;;;;;23.33;21.27;;;;;;;17.44;61.71;95524.91;5073937;28;20447;-73
2023/10/01 20:56:35;;;;;;;23.92;21.73;;;;;;;17.57;61.33;95525.09;5093425;27;20222;-73
2023/10/01 20:59:13;;;;;;;23.95;22.00;;;;;;;17.44;61.82;95529.41;5078119;28;20221;-74
2023/10/01 21:01:53;;;;;;;24.85;22.33;;;;;;;17.43;62.05;95531.22;5061885;28;20246;-72
2023/10/01 21:04:26;;;;;;;24.90;22.60;;;;;;;17.39;62.19;95527.28;5070059;28;20208;-72
2023/10/01 21:07:01;;;;;;;24.15;22.15;;;;;;;17.48;61.73;95534.19;5080452;28;20373;-72
2023/10/01 21:09:28;;;;;;;24.40;22.17;;;;;;;17.39;62.03;95536.06;5081856;28;20190;-72
2023/10/01 21:12:02;;;;;;;23.48;21.48;;;;;;;17.17;62.76;95543.09;5087053;28;20175;-72
2023/10/01 21:14:36;;;;;;;25.23;22.92;;;;;;;17.23;62.58;95543.38;5060079;28;20216;-72
2023/10/01 21:17:12;;;;;;;24.52;22.35;;;;;;;17.34;62.26;95542.94;5084498;28;20216;-75
2023/10/01 21:19:43;;;;;;;23.15;21.15;;;;;;;17.33;62.45;95543.94;5077826;28;20239;-73
2023/10/01 21:22:10;;;;;;;21.67;19.83;;;;;;;17.29;62.60;95545.31;5068368;28;20220;-73
2023/10/01 21:24:43;;;;;;;23.05;21.02;;;;;;;17.23;62.46;95556.66;5060679;28;20231;-72
2023/10/01 21:27:14;;;;;;;22.05;20.15;;;;;;;17.32;62.33;95551.09;5068936;28;20284;-74
2023/10/01 21:29:43;;;;;;;22.92;20.83;;;;;;;17.35;62.08;95553.41;5066265;28;20219;-74
2023/10/01 21:32:15;;;;;;;22.65;20.75;;;;;;;17.24;62.19;95553.84;5063422;28;20213;-74
2023/10/01 21:34:51;;;;;;;23.48;21.35;;;;;;;17.20;62.53;95563.97;5055976;28;20208;-74
2023/10/01 21:37:21;;;;;;;21.23;19.20;;;;;;;17.27;62.31;95550.81;5085099;28;20223;-73
2023/10/01 21:39:52;;;;;;;24.50;22.00;;;;;;;17.31;62.29;95545.97;5056369;28;20223;-74
2023/10/01 21:42:32;;;;;;;22.23;20.33;;;;;;;17.18;62.61;95550.03;5075766;28;20176;-74
2023/10/01 21:45:26;;;;;;;22.98;20.98;;;;;;;17.18;62.49;95544.72;5059826;28;20216;-74
2023/10/01 21:48:00;;;;;;;22.30;20.38;;;;;;;17.30;62.22;95552.28;5073111;28;20283;-74
2023/10/01 21:50:35;;;;;;;22.80;20.63;;;;;;;17.22;62.45;95555.84;5044359;28;20217;-73
2023/10/01 21:53:11;;;;;;;21.25;19.55;;;;;;;17.30;62.26;95547.78;5071008;28;20239;-72
2023/10/01 21:55:37;;;;;;;21.92;19.85;;;;;;;17.26;62.25;95554.47;5057451;28;20250;-74
2023/10/01 21:58:03;;;;;;;22.13;20.02;;;;;;;17.26;62.37;95546.50;5053512;28;20221;-73
2023/10/01 22:01:00;;;;;;;21.52;19.65;;;;;;;17.18;62.41;95538.59;5039114;28;20191;-74
2023/10/01 22:03:33;;;;;;;23.70;21.55;;;;;;;17.07;62.88;95541.69;5084420;28;20178;-73
2023/10/01 22:06:05;;;;;;;21.17;19.17;;;;;;;17.05;62.90;95535.72;5077656;28;20265;-73
2023/10/01 22:08:32;;;;;;;21.15;19.13;;;;;;;17.09;62.97;95543.16;5060594;28;20237;-73
2023/10/01 22:11:01;;;;;;;22.30;20.30;;;;;;;17.07;62.87;95539.84;5063845;28;20342;-73
2023/10/01 22:13:28;;;;;;;21.73;19.58;;;;;;;17.11;62.85;95537.69;5078982;28;20323;-73
2023/10/01 22:15:54;;;;;;;21.13;19.13;;;;;;;17.04;63.04;95539.38;5073347;28;20236;-73
2023/10/01 22:18:26;;;;;;;21.48;19.67;;;;;;;17.00;62.98;95538.09;5075895;28;20188;-73
2023/10/01 22:20:53;;;;;;;22.27;20.08;;;;;;;17.12;62.66;95539.31;5083596;28;20252;-73
2023/10/01 22:23:28;;;;;;;21.58;19.58;;;;;;;16.98;63.09;95540.94;5075834;28;20327;-73
2023/10/01 22:25:59;;;;;;;21.38;19.15;;;;;;;17.01;62.81;95526.47;5042392;28;20234;-74
2023/10/01 22:28:26;;;;;;;20.92;18.95;;;;;;;16.95;62.96;95538.63;5076961;28;20213;-72
2023/10/01 22:30:52;;;;;;;22.15;19.08;;;;;;;17.00;63.00;95535.44;5070112;28;20215;-72
2023/10/01 22:33:17;;;;;;;21.73;19.60;;;;;;;17.05;62.71;95538.38;5079354;28;20184;-72
2023/10/01 22:35:44;;;;;;;20.20;18.13;;;;;;;16.98;62.74;95533.78;5059303;28;20216;-72
2023/10/01 22:38:15;;;;;;;19.15;17.55;;;;;;;16.95;62.90;95534.16;5066943;28;20223;-72
2023/10/01 22:40:49;;;;;;;20.45;18.55;;;;;;;16.91;62.72;95527.53;5061208;28;20215;-72
2023/10/01 22:43:17;;;;;;;19.67;17.80;;;;;;;16.91;62.77;95534.66;5063091;28;20223;-72
2023/10/01 22:45:55;;;;;;;18.65;17.15;;;;;;;16.86;63.00;95532.53;5054526;28;20192;-71
2023/10/01 22:48:25;;;;;;;19.10;17.30;;;;;;;16.81;62.95;95539.41;5078319;28;20187;-72
2023/10/01 22:51:00;;;;;;;18.33;16.52;;;;;;;16.79;62.88;95533.47;5059136;28;20216;-72
2023/10/01 22:53:29;;;;;;;18.88;17.10;;;;;;;16.83;62.56;95526.78;5064333;28;20756;-72
2023/10/01 22:55:57;;;;;;;18.85;17.25;;;;;;;16.87;62.48;95528.09;5056370;28;20609;-71
2023/10/01 22:58:29;;;;;;;18.75;17.08;;;;;;;16.70;63.13;95540.59;5065325;28;20216;-71
2023/10/01 23:00:59;;;;;;;18.17;16.30;;;;;;;16.81;62.55;95547.34;5081696;28;20240;-71
2023/10/01 23:03:30;;;;;;;19.00;17.08;;;;;;;16.67;62.95;95544.44;5079166;28;20208;-70
2023/10/01 23:06:02;;;;;;;18.23;16.42;;;;;;;16.88;62.28;95543.81;5071986;28;20296;-70
2023/10/01 23:08:29;;;;;;;18.20;16.50;;;;;;;16.99;61.92;95547.88;5079146;28;20221;-73
2023/10/01 23:11:00;;;;;;;18.13;16.42;;;;;;;16.93;62.13;95545.94;5067030;28;20483;-71
2023/10/01 23:13:27;;;;;;;17.92;16.15;;;;;;;17.06;61.25;95548.84;5090527;28;20251;-73
2023/10/01 23:16:01;;;;;;;17.55;15.85;;;;;;;16.93;61.63;95549.44;5071607;28;22261;-71
2023/10/01 23:18:35;;;;;;;16.73;15.15;;;;;;;16.86;61.68;95547.66;5072426;28;20267;-71
2023/10/01 23:21:06;;;;;;;15.80;14.18;;;;;;;16.93;61.54;95546.78;5064711;28;20179;-71
2023/10/01 23:23:32;;;;;;;14.40;13.27;;;;;;;16.97;60.67;95539.25;5088532;28;20228;-71
2023/10/01 23:26:04;;;;;;;14.38;12.98;;;;;;;16.76;60.88;95538.06;5062913;28;20216;-71
2023/10/01 23:28:36;;;;;;;15.07;13.68;;;;;;;16.81;60.83;95542.88;5087594;28;20285;-71
2023/10/01 23:31:14;;;;;;;13.95;12.55;;;;;;;16.71;60.64;95529.81;5079259;28;20280;-71
2023/10/01 23:33:45;;;;;;;14.43;12.93;;;;;;;16.74;60.35;95532.13;5089434;28;20178;-72
2023/10/01 23:36:12;;;;;;;14.23;13.02;;;;;;;16.62;60.71;95532.69;5080660;28;20199;-71
2023/10/01 23:38:58;;;;;;;13.93;12.65;;;;;;;16.62;60.48;95530.03;5057867;28;20584;-71
2023/10/01 23:41:28;;;;;;;13.52;12.00;;;;;;;16.81;59.97;95534.09;5072339;28;20223;-72
2023/10/01 23:43:54;;;;;;;12.38;11.18;;;;;;;16.75;59.75;95533.75;5071379;28;20212;-72
2023/10/01 23:46:21;;;;;;;12.93;11.55;;;;;;;16.60;59.87;95532.03;5070507;28;20209;-72
2023/10/01 23:48:51;;;;;;;14.35;11.07;;;;;;;16.74;58.98;95531.28;5074688;28;20242;-72
2023/10/01 23:51:41;;;;;;;11.57;10.48;;;;;;;16.63;59.16;95529.88;5091917;28;20188;-72
2023/10/01 23:54:10;;;;;;;11.75;10.55;;;;;;;16.61;59.21;95547.81;5067778;28;20307;-72
2023/10/01 23:56:38;;;;;;;13.38;10.32;;;;;;;16.76;58.19;95539.91;5089341;28;20228;-72
2023/10/01 23:59:25;;;;;;;13.10;9.32;;;;;;;16.71;58.16;95532.47;5066712;28;20216;-71
